Meteo Giornale » Osservazioni meteo Botswana » Seretse Khama
ore: 11:00 - Osservazioni Meteo Seretse Khama
Lat. 24° 13' S Lon. 25° 55' E Alt. 1005 metri s.l.m.
25 °C
Sereno
Temp. 24 Ore
12 °C
29 °C
Est/Nord-Est
14.8 Km/h
Dew point 10 °C
Umidità 38 %
Visibilità 10 Km
Il sole sorge alle ore 06:27
Il sole tramonta alle ore 18:05
| Data e Ora | Cielo e Fenomeni | T °C | DP °C | Um. % | Pres. hPa | Vis. km | Vento km/h | |
|---|---|---|---|---|---|---|---|---|
| Oggi h: 11:00 | Sereno | 25 | 10 | 38 | 1026 | 10 | E/NE 14.8 | |
| Oggi h: 10:00 | Sereno | 22 | 10 | 46 | 1027 | 10 | E/NE 24 | |
| Oggi h: 09:00 | Sereno | 21 | 8 | 43 | 1027 | 10 | E/NE 20.3 | |
| Oggi h: 08:00 | Sereno | 18 | 6 | 45 | 1026 | 10 | E 11.1 | |
| Oggi h: 07:00 | Sereno | 14 | 5 | 54 | 1025 | 10 | SE 13 | |
| Oggi h: 06:00 | Sereno | 13 | 5 | 58 | 1024 | 10 | SE 13 | |
| Oggi h: 05:00 | Sereno | 14 | 4 | 50 | 1024 | 10 | E/SE 11.1 | |
| Oggi h: 04:00 | Sereno | 14 | 6 | 58 | 1023 | 10 | E/NE 14.8 | |
| Oggi h: 03:00 | Sereno | 13 | 4 | 54 | 1023 | 10 | N 5.5 | |
| Oggi h: 02:00 | Sereno | 14 | 4 | 50 | 1023 | 10 | E 9.3 | |
| Oggi h: 01:00 | Sereno | 12 | 4 | 57 | 1024 | 10 | N 3.7 | |
| Oggi h: 00:00 | Sereno | 13 | 4 | 54 | 1023 | 10 | N 3.7 | |
| Ieri h: 23:00 | Sereno | 16 | 4 | 44 | 1023 | 10 | N 3.7 | |
| Ieri h: 22:00 | Sereno | 18 | 4 | 39 | 1023 | 10 | SE 14.8 | |
| Ieri h: 21:00 | Sereno | 19 | 4 | 37 | 1023 | 10 | SE 14.8 | |
| Ieri h: 20:00 | Sereno | 20 | 4 | 34 | 1022 | 10 | SE 14.8 | |
| Ieri h: 19:00 | Sereno | 22 | 4 | 30 | 1022 | 10 | SE 13 | |
| Ieri h: 18:00 | Sereno | 25 | 4 | 25 | 1021 | 10 | E/SE 11.1 | |
| Ieri h: 17:00 | Sereno | 28 | 4 | 21 | 1021 | 10 | E 16.7 | |
| Ieri h: 16:00 | Sereno | 29 | 4 | 20 | 1021 | 10 | E 14.8 | |
| Ieri h: 15:00 | Sereno | 29 | 5 | 21 | 1021 | 10 | E 11.1 | |
| Ieri h: 14:00 | Sereno | 29 | 4 | 20 | 1022 | 10 | E/NE 11.1 | |
| Ieri h: 13:00 | Sereno | 28 | 5 | 23 | 1022 | 10 | NE 11.1 | |



